Terminal Aerodrome Forecast
Issued by NWS

Home | Current Version | Previous Version | Text Only | Print | Product List | Glossary On
Versions: 1 2 3 4 5 6 7 8 9 10 11 12 13 14 15 16 17
000
FTUS44 KCRP 031724
TAFLRD
TAF
KLRD 031724Z 0318/0418 09004KT P6SM SCT040
     FM040100 12012KT P6SM FEW080
     FM041000 14007KT P6SM FEW040=

USA.gov is the U.S. government's official web portal to all federal, state and local government web resources and services.